Time;durP1;ratioP1;P1;durP2;ratioP2;P2;SDS_P1;SDS_P2;PMS_P1;PMS_P2;Temp;Humidity;BMP_temperature;BMP_pressure;BME280_temperature;BME280_humidity;BME280_pressure;Samples;Min_cycle;Max_cycle;Signal;HPM_P1;HPM_P2
2024/03/02 00:02:09;;;;;;;11.60;8.98;;;;;;;8.51;92.89;99701.66;6226608;22;20263;-84
2024/03/02 00:04:37;;;;;;;18.67;11.05;;;;;;;8.51;93.12;99704.25;6226655;22;20024;-82
2024/03/02 00:07:04;;;;;;;14.48;10.05;;;;;;;8.52;93.09;99708.59;6227242;22;20031;-84
2024/03/02 00:09:31;;;;;;;17.92;11.50;;;;;;;8.48;93.38;99705.16;6227380;22;20015;-84
2024/03/02 00:12:01;;;;;;;15.40;10.00;;;;;;;8.51;93.90;99705.09;6250661;22;20016;-83
2024/03/02 00:14:33;;;;;;;14.85;9.73;;;;;;;8.54;93.54;99698.97;6253402;22;20019;-84
2024/03/02 00:17:00;;;;;;;14.60;10.02;;;;;;;8.55;93.62;99703.31;6252160;22;20114;-82
2024/03/02 00:19:27;;;;;;;15.18;9.73;;;;;;;8.53;93.80;99708.56;6227936;22;20015;-84
2024/03/02 00:21:53;;;;;;;12.98;9.98;;;;;;;8.49;94.51;99706.03;6226554;22;20523;-82
2024/03/02 00:24:35;;;;;;;17.40;11.50;;;;;;;8.53;94.57;99712.94;6226969;22;20027;-82
2024/03/02 00:27:11;;;;;;;18.77;12.02;;;;;;;8.55;94.20;99703.31;6227581;22;20039;-84
2024/03/02 00:29:37;;;;;;;14.43;10.05;;;;;;;8.54;94.54;99710.28;6227157;22;20448;-84
2024/03/02 00:32:03;;;;;;;17.17;11.45;;;;;;;8.52;94.66;99705.97;6225952;22;20357;-82
2024/03/02 00:34:30;;;;;;;16.73;10.73;;;;;;;8.50;94.75;99707.75;6227583;22;20024;-82
2024/03/02 00:37:00;;;;;;;16.90;11.55;;;;;;;8.49;95.28;99712.09;6225779;22;20520;-82
2024/03/02 00:39:26;;;;;;;16.13;11.07;;;;;;;8.51;94.68;99706.84;6226817;22;20043;-81
2024/03/02 00:41:56;;;;;;;17.50;12.88;;;;;;;8.50;95.29;99706.00;6224832;22;20221;-84
2024/03/02 00:44:29;;;;;;;18.27;11.90;;;;;;;8.52;94.88;99711.19;6251011;22;20034;-81
2024/03/02 00:46:56;;;;;;;15.57;12.05;;;;;;;8.51;95.33;99720.75;6226609;22;20051;-83
2024/03/02 00:49:28;;;;;;;16.52;11.23;;;;;;;8.51;95.79;99722.50;6227182;22;20015;-82
2024/03/02 00:51:56;;;;;;;18.08;11.75;;;;;;;8.52;95.60;99717.25;6226087;22;20256;-83
2024/03/02 00:54:26;;;;;;;17.45;12.57;;;;;;;8.50;95.86;99718.16;6227086;22;20028;-81
2024/03/02 00:56:55;;;;;;;17.90;11.27;;;;;;;8.53;95.56;99715.53;6225337;22;20097;-81
2024/03/02 00:59:25;;;;;;;14.98;10.73;;;;;;;8.52;96.04;99711.19;6251758;22;20083;-82
2024/03/02 01:01:52;;;;;;;18.35;12.23;;;;;;;8.51;95.76;99712.94;6249816;22;20016;-82
2024/03/02 01:04:18;;;;;;;20.15;12.35;;;;;;;8.51;96.11;99717.28;6225505;22;20043;-84
2024/03/02 01:06:45;;;;;;;17.75;12.05;;;;;;;8.49;96.65;99711.25;6244175;22;20027;-81
2024/03/02 01:09:14;;;;;;;19.02;12.50;;;;;;;8.44;97.32;99706.91;6220360;22;20828;-82
2024/03/02 01:11:40;;;;;;;17.40;11.68;;;;;;;8.50;96.62;99707.75;6219738;22;20011;-84
2024/03/02 01:14:07;;;;;;;20.33;13.85;;;;;;;8.49;97.08;99708.66;6245493;22;20361;-83
2024/03/02 01:16:35;;;;;;;19.63;12.90;;;;;;;8.49;97.17;99706.03;6218572;22;20626;-82
2024/03/02 01:19:02;;;;;;;22.70;13.65;;;;;;;8.47;97.45;99710.41;6220239;22;20022;-82
2024/03/02 01:21:29;;;;;;;17.63;12.50;;;;;;;8.44;97.66;99716.50;6243800;22;20020;-84
2024/03/02 01:23:55;;;;;;;21.13;12.98;;;;;;;8.46;98.16;99716.50;6219056;22;20421;-83
2024/03/02 01:26:22;;;;;;;20.48;13.85;;;;;;;8.47;98.42;99723.44;6219611;22;20019;-83
2024/03/02 01:28:51;;;;;;;19.98;13.10;;;;;;;8.46;98.26;99716.50;6218636;22;20051;-84
2024/03/02 01:31:18;;;;;;;21.38;13.50;;;;;;;8.44;98.20;99722.56;6218575;22;20024;-84
2024/03/02 01:33:46;;;;;;;24.55;13.70;;;;;;;8.44;98.48;99714.75;6219078;22;20077;-82
2024/03/02 01:36:13;;;;;;;19.98;13.63;;;;;;;8.46;98.53;99708.69;6243537;22;20019;-84
2024/03/02 01:38:42;;;;;;;22.30;14.00;;;;;;;8.48;98.06;99705.16;6243421;22;20035;-83
2024/03/02 01:41:11;;;;;;;19.67;12.93;;;;;;;8.49;97.91;99709.50;6218526;22;20516;-84
2024/03/02 01:43:39;;;;;;;20.77;12.68;;;;;;;8.47;98.07;99710.41;6218342;22;20019;-84
2024/03/02 01:46:06;;;;;;;20.35;12.43;;;;;;;8.44;98.28;99703.47;6219750;22;20026;-84
2024/03/02 01:48:34;;;;;;;23.95;13.75;;;;;;;8.46;98.17;99700.84;6219729;22;20047;-83
2024/03/02 01:51:01;;;;;;;21.58;12.73;;;;;;;8.45;98.02;99699.97;6219839;22;20520;-84
2024/03/02 01:53:29;;;;;;;23.25;14.10;;;;;;;8.45;97.90;99702.56;6219957;22;20103;-84
2024/03/02 01:55:55;;;;;;;18.50;13.18;;;;;;;8.43;98.14;99697.38;6219202;22;20662;-83
2024/03/02 01:58:22;;;;;;;19.08;13.70;;;;;;;8.41;98.16;99695.69;6220131;22;20035;-83
2024/03/02 02:00:50;;;;;;;19.52;12.90;;;;;;;8.41;98.58;99691.31;6245253;22;20054;-83
2024/03/02 02:03:19;;;;;;;19.48;12.43;;;;;;;8.37;98.60;99681.84;6245762;22;20020;-83
2024/03/02 02:05:48;;;;;;;17.85;12.45;;;;;;;8.36;98.96;99687.94;6219413;22;20015;-83
2024/03/02 02:08:15;;;;;;;18.95;13.93;;;;;;;8.33;99.47;99680.16;6220843;22;20114;-84
2024/03/02 02:10:42;;;;;;;22.85;14.35;;;;;;;8.30;100.00;99674.13;6246172;22;20057;-83
2024/03/02 02:13:11;;;;;;;25.75;15.50;;;;;;;8.27;100.00;99677.63;6220912;22;20033;-83
2024/03/02 02:15:45;;;;;;;22.38;14.25;;;;;;;8.28;100.00;99679.38;6220965;22;20015;-84
2024/03/02 02:18:12;;;;;;;24.40;15.63;;;;;;;8.24;100.00;99670.72;6245648;22;20046;-83
2024/03/02 02:20:38;;;;;;;23.13;15.23;;;;;;;8.22;100.00;99669.88;6220270;22;20034;-84
2024/03/02 02:23:07;;;;;;;21.95;14.77;;;;;;;8.22;100.00;99671.63;6245647;22;20062;-83
2024/03/02 02:25:34;;;;;;;25.42;15.35;;;;;;;8.20;100.00;99668.19;6219573;22;20433;-83
2024/03/02 02:28:01;;;;;;;25.88;14.68;;;;;;;8.21;100.00;99673.38;6239563;22;20114;-83
2024/03/02 02:30:32;;;;;;;22.17;15.27;;;;;;;8.24;100.00;99680.31;6233351;22;20015;-84
2024/03/02 02:32:59;;;;;;;25.65;16.23;;;;;;;8.22;100.00;99675.09;6219853;22;20618;-84
2024/03/02 02:35:26;;;;;;;30.05;15.10;;;;;;;8.22;100.00;99666.41;6220555;22;20022;-83
2024/03/02 02:37:55;;;;;;;25.08;14.98;;;;;;;8.21;100.00;99676.00;6220020;22;20031;-84
2024/03/02 02:40:22;;;;;;;21.90;15.10;;;;;;;8.21;100.00;99667.28;6222408;22;20020;-83
2024/03/02 02:42:49;;;;;;;22.77;13.98;;;;;;;8.20;100.00;99665.56;6245120;22;20062;-83
2024/03/02 02:45:16;;;;;;;22.33;14.55;;;;;;;8.21;100.00;99667.28;6220362;22;20024;-83
2024/03/02 02:47:44;;;;;;;23.80;13.82;;;;;;;8.20;100.00;99669.06;6220770;22;20031;-83
2024/03/02 02:50:14;;;;;;;27.08;16.23;;;;;;;8.17;100.00;99668.22;6222432;22;20449;-83
2024/03/02 02:52:43;;;;;;;22.40;14.45;;;;;;;8.16;100.00;99661.28;6220617;22;20020;-83
2024/03/02 02:55:12;;;;;;;25.17;16.23;;;;;;;8.18;100.00;99665.59;6220869;22;20055;-83
2024/03/02 02:57:43;;;;;;;22.98;14.30;;;;;;;8.18;100.00;99656.94;6196209;22;20069;-83
2024/03/02 03:00:19;;;;;;;27.30;15.63;;;;;;;8.15;100.00;99657.84;6221648;22;20060;-83
2024/03/02 03:02:49;;;;;;;23.30;15.00;;;;;;;8.16;100.00;99656.06;6220265;22;20024;-82
2024/03/02 03:05:16;;;;;;;20.92;13.43;;;;;;;8.13;100.00;99662.19;6221112;22;20361;-84
2024/03/02 03:07:44;;;;;;;25.98;15.45;;;;;;;8.10;100.00;99655.28;6220587;22;20027;-84
2024/03/02 03:10:11;;;;;;;19.98;13.70;;;;;;;8.06;100.00;99653.59;6222417;22;20011;-82
2024/03/02 03:12:37;;;;;;;23.13;14.20;;;;;;;8.04;100.00;99659.72;6222039;22;20024;-84
2024/03/02 03:15:08;;;;;;;21.52;13.98;;;;;;;7.99;100.00;99651.13;6221715;22;20069;-84
2024/03/02 03:17:35;;;;;;;21.63;14.85;;;;;;;7.93;100.00;99652.06;6197836;22;20066;-83
2024/03/02 03:20:03;;;;;;;21.27;13.45;;;;;;;7.90;100.00;99647.75;6220236;22;20015;-83
2024/03/02 03:22:31;;;;;;;20.20;12.90;;;;;;;7.84;100.00;99647.84;6219463;22;20023;-84
2024/03/02 03:24:57;;;;;;;30.15;13.60;;;;;;;7.82;100.00;99635.72;6221448;22;20050;-82
2024/03/02 03:27:24;;;;;;;24.38;13.80;;;;;;;7.76;100.00;99641.88;6220767;22;20361;-82
2024/03/02 03:29:50;;;;;;;23.45;13.30;;;;;;;7.73;100.00;99645.41;6245555;22;20062;-82
2024/03/02 03:32:18;;;;;;;22.15;13.35;;;;;;;7.70;100.00;99637.59;6221071;22;20019;-82
2024/03/02 03:34:45;;;;;;;22.55;13.60;;;;;;;7.68;100.00;99634.19;6220968;22;20050;-83
2024/03/02 03:37:12;;;;;;;18.17;11.70;;;;;;;7.68;100.00;99644.59;6220582;22;20016;-84
2024/03/02 03:39:41;;;;;;;24.17;13.75;;;;;;;7.65;100.00;99647.22;6247313;22;20031;-84
2024/03/02 03:42:08;;;;;;;19.20;13.13;;;;;;;7.61;100.00;99645.53;6243274;22;20035;-84
2024/03/02 03:44:39;;;;;;;22.92;13.35;;;;;;;7.59;100.00;99642.13;6215988;23;20027;-81
2024/03/02 03:47:06;;;;;;;19.13;11.57;;;;;;;7.55;100.00;99646.50;6240902;22;20338;-83
2024/03/02 03:49:32;;;;;;;23.17;13.02;;;;;;;7.52;100.00;99641.34;6221412;22;20110;-85
2024/03/02 03:51:59;;;;;;;24.38;13.68;;;;;;;7.51;100.00;99633.53;6245299;22;20020;-84
2024/03/02 03:54:25;;;;;;;23.63;13.80;;;;;;;7.50;100.00;99642.25;6221036;22;20077;-83
2024/03/02 03:56:52;;;;;;;19.50;11.73;;;;;;;7.49;100.00;99645.72;6219181;22;20495;-82
2024/03/02 03:59:19;;;;;;;20.83;11.60;;;;;;;7.47;100.00;99640.53;6221210;22;20031;-84
2024/03/02 04:01:45;;;;;;;18.50;12.40;;;;;;;7.48;100.00;99651.78;6220298;22;20346;-82
2024/03/02 04:04:12;;;;;;;22.10;12.82;;;;;;;7.47;100.00;99643.13;6247620;22;20054;-82
2024/03/02 04:06:40;;;;;;;28.33;14.13;;;;;;;7.43;100.00;99644.91;6221630;22;20023;-84
2024/03/02 04:09:12;;;;;;;19.40;12.07;;;;;;;7.42;100.00;99631.91;6222537;22;20021;-84
2024/03/02 04:11:40;;;;;;;21.67;12.60;;;;;;;7.44;100.00;99643.16;6223701;22;20446;-83
2024/03/02 04:14:07;;;;;;;21.45;12.50;;;;;;;7.46;100.00;99641.41;6226011;22;20019;-82
2024/03/02 04:16:48;;;;;;;27.00;13.48;;;;;;;7.47;100.00;99639.66;6254689;22;20015;-84
2024/03/02 04:19:14;;;;;;;18.25;11.52;;;;;;;7.45;100.00;99637.06;6229995;22;20020;-84
2024/03/02 04:21:44;;;;;;;24.20;13.13;;;;;;;7.47;100.00;99634.44;6235181;22;20095;-84
2024/03/02 04:24:17;;;;;;;20.58;11.73;;;;;;;7.47;100.00;99627.50;6262657;22;20016;-84
2024/03/02 04:26:45;;;;;;;23.08;11.57;;;;;;;7.48;100.00;99625.75;6235107;22;20019;-85
2024/03/02 04:29:21;;;;;;;19.35;12.13;;;;;;;7.50;100.00;99637.03;6267563;22;20050;-83
2024/03/02 04:31:48;;;;;;;21.07;11.77;;;;;;;7.47;100.00;99635.31;6222874;22;20024;-83
2024/03/02 04:34:15;;;;;;;24.25;12.75;;;;;;;7.43;100.00;99634.50;6253897;22;20246;-83
2024/03/02 04:36:42;;;;;;;20.30;11.88;;;;;;;7.45;100.00;99639.69;6225050;22;20023;-83
2024/03/02 04:39:10;;;;;;;20.75;13.35;;;;;;;7.42;100.00;99642.34;6222889;22;20711;-84
2024/03/02 04:41:37;;;;;;;18.75;11.55;;;;;;;7.42;100.00;99643.19;6247264;22;20030;-83
2024/03/02 04:44:03;;;;;;;21.50;13.10;;;;;;;7.39;100.00;99643.22;6248522;22;20023;-84
2024/03/02 04:46:30;;;;;;;19.35;11.75;;;;;;;7.37;100.00;99650.19;6249037;22;20020;-84
2024/03/02 04:48:57;;;;;;;21.45;12.63;;;;;;;7.35;100.00;99653.69;6246305;22;20435;-83
2024/03/02 04:51:23;;;;;;;22.92;12.93;;;;;;;7.32;100.00;99644.16;6223235;22;20024;-83
2024/03/02 04:53:50;;;;;;;21.15;11.85;;;;;;;7.30;100.00;99638.13;6221826;22;20027;-82
2024/03/02 04:56:44;;;;;;;23.48;12.40;;;;;;;7.27;100.00;99648.56;6221755;22;20411;-82
2024/03/02 04:59:11;;;;;;;22.77;12.77;;;;;;;7.23;100.00;99647.72;6261385;22;20032;-83
2024/03/02 05:01:38;;;;;;;21.45;12.70;;;;;;;7.20;100.00;99649.53;6247072;22;20024;-83
2024/03/02 05:04:05;;;;;;;23.20;12.18;;;;;;;7.15;100.00;99653.94;6220635;22;20055;-83
2024/03/02 05:06:32;;;;;;;18.27;10.88;;;;;;;7.12;100.00;99647.88;6221426;22;20024;-84
2024/03/02 05:08:58;;;;;;;22.45;12.95;;;;;;;7.11;100.00;99642.69;6246243;22;20016;-84
2024/03/02 05:11:59;;;;;;;22.33;13.48;;;;;;;7.08;100.00;99645.31;6221833;22;20022;-83
2024/03/02 05:14:24;;;;;;;20.35;11.30;;;;;;;7.04;100.00;99641.88;6228910;22;20413;-83
2024/03/02 05:16:51;;;;;;;24.25;12.68;;;;;;;7.02;100.00;99637.59;6245659;22;20114;-84
2024/03/02 05:19:18;;;;;;;24.33;13.38;;;;;;;7.04;100.00;99643.59;6221644;22;20043;-84
2024/03/02 05:21:48;;;;;;;21.48;13.38;;;;;;;7.03;100.00;99634.94;6220687;22;20075;-84
2024/03/02 05:24:15;;;;;;;25.88;13.35;;;;;;;7.01;100.00;99631.50;6221686;22;20019;-83
2024/03/02 05:26:48;;;;;;;29.42;15.45;;;;;;;6.99;100.00;99642.78;6245266;22;20023;-84
2024/03/02 05:29:14;;;;;;;24.38;13.20;;;;;;;6.98;100.00;99648.91;6221126;22;20510;-85
2024/03/02 05:31:41;;;;;;;23.85;12.35;;;;;;;6.95;100.00;99645.44;6246842;22;20016;-83
2024/03/02 05:34:08;;;;;;;26.13;14.20;;;;;;;6.92;100.00;99635.06;6221173;22;20184;-83
2024/03/02 05:36:35;;;;;;;26.85;14.90;;;;;;;6.91;100.00;99637.66;6246117;22;20461;-83
2024/03/02 05:39:04;;;;;;;22.27;13.85;;;;;;;6.90;100.00;99646.38;6221212;22;20023;-82
2024/03/02 05:41:31;;;;;;;30.88;15.05;;;;;;;6.87;100.00;99654.19;6248514;22;20058;-84
2024/03/02 05:43:58;;;;;;;24.15;13.80;;;;;;;6.86;100.00;99660.31;6220239;22;20092;-83
2024/03/02 05:46:24;;;;;;;27.08;15.60;;;;;;;6.83;100.00;99662.91;6221253;22;20019;-85
2024/03/02 05:48:52;;;;;;;25.80;15.57;;;;;;;6.79;100.00;99659.47;6221248;22;20024;-83
2024/03/02 05:51:18;;;;;;;26.77;14.88;;;;;;;6.79;100.00;99669.88;6221684;22;20022;-83
2024/03/02 05:53:48;;;;;;;26.70;14.48;;;;;;;6.77;100.00;99663.84;6237983;22;20075;-84
2024/03/02 05:56:15;;;;;;;25.33;14.63;;;;;;;6.75;100.00;99666.47;6245693;22;20023;-83
2024/03/02 05:58:57;;;;;;;27.40;14.13;;;;;;;6.72;100.00;99660.41;6246295;22;20019;-84
2024/03/02 06:01:28;;;;;;;27.63;15.35;;;;;;;6.69;100.00;99665.63;6272161;22;20705;-84
2024/03/02 06:03:56;;;;;;;27.23;16.48;;;;;;;6.64;100.00;99662.25;6244536;22;20016;-83
2024/03/02 06:06:27;;;;;;;25.10;14.15;;;;;;;6.61;100.00;99665.72;6220907;22;20110;-83
2024/03/02 06:08:53;;;;;;;25.27;15.15;;;;;;;6.59;100.00;99667.47;6220943;22;20023;-83
2024/03/02 06:11:21;;;;;;;24.77;15.38;;;;;;;6.56;100.00;99657.09;6221878;22;20143;-82
2024/03/02 06:13:50;;;;;;;27.25;15.05;;;;;;;6.54;100.00;99674.44;6222051;22;20022;-84
2024/03/02 06:16:16;;;;;;;24.90;15.20;;;;;;;6.52;100.00;99671.84;6222926;22;20019;-81
2024/03/02 06:18:47;;;;;;;28.48;15.77;;;;;;;6.51;100.00;99679.69;6248449;22;20054;-83
2024/03/02 06:21:18;;;;;;;25.17;15.45;;;;;;;6.54;100.00;99679.63;6221048;22;20091;-82
2024/03/02 06:23:47;;;;;;;27.40;15.77;;;;;;;6.55;100.00;99689.19;6221736;22;20030;-81
2024/03/02 06:26:14;;;;;;;25.83;15.68;;;;;;;6.57;100.00;99693.50;6246039;22;20019;-83
2024/03/02 06:28:41;;;;;;;30.23;16.55;;;;;;;6.60;100.00;99690.84;6245763;22;20049;-83
2024/03/02 06:31:07;;;;;;;29.13;16.45;;;;;;;6.65;100.00;99685.63;6220349;22;20078;-82
2024/03/02 06:33:34;;;;;;;28.80;15.48;;;;;;;6.68;100.00;99689.94;6246435;22;20023;-83
2024/03/02 06:36:01;;;;;;;27.50;15.88;;;;;;;6.74;100.00;99695.06;6220807;22;20331;-83
2024/03/02 06:38:27;;;;;;;35.00;18.65;;;;;;;6.79;100.00;99693.28;6221497;22;20392;-84
2024/03/02 06:40:55;;;;;;;27.80;16.05;;;;;;;6.87;100.00;99693.22;6220358;22;20445;-83
2024/03/02 06:43:23;;;;;;;28.40;17.02;;;;;;;6.95;100.00;99689.69;6223844;22;20081;-84
2024/03/02 06:45:53;;;;;;;30.63;16.52;;;;;;;7.04;100.00;99693.94;6222029;22;20020;-84
2024/03/02 06:48:21;;;;;;;33.40;17.80;;;;;;;7.12;100.00;99696.47;6222614;22;20075;-84
2024/03/02 06:50:51;;;;;;;34.83;19.73;;;;;;;7.20;100.00;99696.38;6247830;22;20441;-82
2024/03/02 06:53:19;;;;;;;35.38;17.60;;;;;;;7.30;100.00;99700.63;6247087;22;20442;-83
2024/03/02 06:55:51;;;;;;;28.42;16.13;;;;;;;7.38;100.00;99700.50;6195964;22;20023;-83
2024/03/02 06:58:17;;;;;;;32.88;17.88;;;;;;;7.43;100.00;99698.72;6246653;22;20023;-82
2024/03/02 07:00:44;;;;;;;27.80;16.52;;;;;;;7.55;100.00;99698.59;6247100;22;20084;-82
2024/03/02 07:03:12;;;;;;;27.77;16.10;;;;;;;7.62;100.00;99695.00;6221057;22;20015;-81
2024/03/02 07:05:38;;;;;;;31.27;17.05;;;;;;;7.73;100.00;99699.22;6247602;22;20015;-82
2024/03/02 07:08:06;;;;;;;28.85;17.35;;;;;;;7.85;100.00;99698.19;6220551;22;20047;-82
2024/03/02 07:10:32;;;;;;;29.88;16.50;;;;;;;8.01;100.00;99699.72;6247117;22;20103;-84
2024/03/02 07:12:59;;;;;;;28.55;16.08;;;;;;;8.82;100.00;99703.75;6246527;22;20022;-82
2024/03/02 07:15:44;;;;;;;25.92;16.73;;;;;;;9.68;99.70;99706.50;6221684;22;20401;-84
2024/03/02 07:18:10;;;;;;;27.23;15.73;;;;;;;9.69;94.87;99713.47;6224473;22;20467;-81
2024/03/02 07:20:38;;;;;;;24.42;15.68;;;;;;;10.36;91.57;99708.53;6221700;22;20023;-83
2024/03/02 07:23:09;;;;;;;23.88;15.70;;;;;;;11.35;85.18;99715.66;6222863;22;20027;-84
2024/03/02 07:25:41;;;;;;;26.27;15.55;;;;;;;11.65;79.91;99719.19;6222490;22;20019;-84
2024/03/02 07:28:07;;;;;;;25.00;16.00;;;;;;;12.02;78.32;99715.53;6220324;22;20118;-83
2024/03/02 07:30:34;;;;;;;25.45;15.50;;;;;;;11.97;78.48;99717.44;6220341;22;20739;-83
2024/03/02 07:33:06;;;;;;;25.17;15.13;;;;;;;11.95;79.12;99715.72;6220362;22;20028;-82
2024/03/02 07:35:33;;;;;;;23.02;15.02;;;;;;;12.06;78.37;99724.19;6248227;22;20020;-83
2024/03/02 07:38:00;;;;;;;21.88;15.73;;;;;;;12.01;75.71;99726.94;6220256;22;20020;-84
2024/03/02 07:40:27;;;;;;;26.85;14.95;;;;;;;12.14;76.74;99731.81;6246934;22;20011;-83
2024/03/02 07:42:53;;;;;;;25.20;18.02;;;;;;;12.46;74.03;99733.44;6221065;22;20500;-83
2024/03/02 07:45:20;;;;;;;23.55;15.57;;;;;;;13.11;70.97;99731.31;6223004;22;20054;-83
2024/03/02 07:47:49;;;;;;;24.05;15.10;;;;;;;14.24;67.08;99737.78;6247453;22;20099;-81
2024/03/02 07:50:16;;;;;;;24.73;15.05;;;;;;;13.76;66.79;99744.00;6247551;22;20088;-83
2024/03/02 07:52:42;;;;;;;24.02;14.45;;;;;;;13.47;67.39;99735.38;6225670;22;20394;-83
2024/03/02 07:55:09;;;;;;;28.52;16.20;;;;;;;13.63;67.76;99740.94;6221717;22;20101;-82
2024/03/02 07:57:36;;;;;;;24.08;15.07;;;;;;;14.17;65.70;99731.91;6222398;22;20444;-84
2024/03/02 08:00:02;;;;;;;22.48;15.48;;;;;;;12.61;70.28;99733.88;6222494;22;20026;-84
2024/03/02 08:02:29;;;;;;;23.38;14.82;;;;;;;11.76;74.59;99739.88;6248259;22;20123;-83
2024/03/02 08:04:55;;;;;;;25.92;16.40;;;;;;;10.92;79.22;99736.84;6249585;22;20011;-83
2024/03/02 08:07:22;;;;;;;24.13;14.77;;;;;;;10.43;82.56;99735.44;6222656;22;20023;-84
2024/03/02 08:09:52;;;;;;;23.75;15.35;;;;;;;10.26;84.40;99741.84;6224681;22;20027;-81
2024/03/02 08:12:19;;;;;;;25.70;17.33;;;;;;;9.92;88.02;99734.75;6222950;22;20107;-84
2024/03/02 08:14:46;;;;;;;24.98;15.88;;;;;;;9.81;88.87;99738.47;6224932;22;20020;-83
2024/03/02 08:17:15;;;;;;;24.50;16.20;;;;;;;9.98;88.53;99745.97;6248950;22;20078;-83
2024/03/02 08:19:42;;;;;;;24.38;15.77;;;;;;;9.90;88.42;99740.91;6224642;22;20031;-85
2024/03/02 08:22:08;;;;;;;22.20;15.23;;;;;;;9.85;88.46;99737.53;6248815;22;20023;-85
2024/03/02 08:24:35;;;;;;;21.88;13.88;;;;;;;9.99;87.89;99739.84;6224681;22;20087;-84
2024/03/02 08:27:02;;;;;;;23.27;15.60;;;;;;;10.10;87.99;99745.69;6222966;22;20028;-84
2024/03/02 08:29:28;;;;;;;24.48;14.85;;;;;;;10.16;86.61;99740.34;6224066;22;20346;-83
2024/03/02 08:31:55;;;;;;;22.08;15.63;;;;;;;10.15;86.95;99743.00;6226784;22;20020;-82
2024/03/02 08:34:22;;;;;;;25.30;16.33;;;;;;;10.23;86.58;99746.28;6227671;22;20103;-85
2024/03/02 08:36:49;;;;;;;24.15;15.93;;;;;;;10.19;86.71;99748.09;6225510;22;20023;-86
2024/03/02 08:39:16;;;;;;;29.48;15.80;;;;;;;10.22;86.35;99748.06;6224773;22;20076;-84
2024/03/02 08:41:47;;;;;;;24.92;15.60;;;;;;;10.34;86.54;99756.50;6225643;22;20015;-85
2024/03/02 08:44:15;;;;;;;25.33;15.77;;;;;;;10.53;85.14;99752.63;6223169;22;20415;-83
2024/03/02 08:46:42;;;;;;;23.85;15.25;;;;;;;10.60;84.07;99750.72;6251661;22;20392;-83
2024/03/02 08:49:09;;;;;;;25.00;14.80;;;;;;;10.58;84.69;99748.13;6252466;22;20026;-82
2024/03/02 08:51:35;;;;;;;24.90;15.25;;;;;;;10.68;84.11;99758.41;6252322;22;20024;-83
2024/03/02 08:54:04;;;;;;;25.88;15.40;;;;;;;10.50;83.79;99762.31;6226877;22;20086;-83
2024/03/02 08:56:32;;;;;;;21.95;15.20;;;;;;;10.74;83.26;99753.88;6232173;22;20024;-84
2024/03/02 08:59:01;;;;;;;23.05;15.38;;;;;;;10.81;83.52;99764.19;6230751;22;20069;-85
2024/03/02 09:01:28;;;;;;;22.08;13.45;;;;;;;10.92;82.09;99754.31;6226088;22;20050;-82
2024/03/02 09:03:54;;;;;;;25.02;14.27;;;;;;;11.04;80.38;99758.38;6251139;22;20049;-84
2024/03/02 09:06:21;;;;;;;21.23;14.27;;;;;;;10.98;80.35;99759.41;6226192;22;20436;-84
2024/03/02 09:08:48;;;;;;;29.88;15.07;;;;;;;10.80;80.31;99762.47;6226482;22;20413;-84
2024/03/02 09:11:15;;;;;;;24.95;14.60;;;;;;;10.84;80.61;99764.13;6229485;22;20019;-83
2024/03/02 09:13:42;;;;;;;24.00;14.90;;;;;;;11.07;80.06;99766.19;6254934;22;20031;-83
2024/03/02 09:16:10;;;;;;;25.80;15.05;;;;;;;11.06;79.21;99754.81;6258789;22;20030;-83
2024/03/02 09:18:43;;;;;;;21.65;14.05;;;;;;;11.02;78.96;99761.03;6231218;22;20023;-84
2024/03/02 09:21:10;;;;;;;29.15;15.07;;;;;;;11.12;79.04;99768.66;6228999;22;20023;-82
2024/03/02 09:23:36;;;;;;;21.38;13.65;;;;;;;11.09;78.03;99765.25;6232214;22;20394;-83
2024/03/02 09:26:03;;;;;;;21.30;12.88;;;;;;;11.16;78.53;99762.44;6253586;22;20023;-84
2024/03/02 09:28:32;;;;;;;20.25;12.88;;;;;;;11.11;77.69;99762.56;6252604;22;20031;-84
2024/03/02 09:30:59;;;;;;;18.63;12.80;;;;;;;11.22;77.26;99760.56;6250661;22;20019;-83
2024/03/02 09:33:26;;;;;;;17.10;12.73;;;;;;;11.31;76.76;99759.44;6279641;22;20058;-84
2024/03/02 09:35:52;;;;;;;19.45;13.73;;;;;;;11.25;76.14;99770.06;6256637;22;20030;-83
2024/03/02 09:38:22;;;;;;;21.63;13.82;;;;;;;11.42;76.39;99767.03;6254874;22;20042;-83
2024/03/02 09:40:49;;;;;;;19.73;13.05;;;;;;;11.31;76.86;99764.66;6253872;22;20046;-81
2024/03/02 09:43:16;;;;;;;21.27;13.98;;;;;;;11.30;76.71;99769.94;6254073;22;20110;-83
2024/03/02 09:45:43;;;;;;;23.10;14.13;;;;;;;11.25;76.20;99763.06;6253691;22;20072;-83
2024/03/02 09:48:09;;;;;;;20.58;14.18;;;;;;;11.27;76.63;99777.91;6254576;22;20019;-83
2024/03/02 09:50:36;;;;;;;22.20;13.98;;;;;;;11.40;76.47;99771.44;6282089;22;20011;-82
2024/03/02 09:53:03;;;;;;;17.30;11.60;;;;;;;11.46;76.43;99775.63;6256309;22;20360;-83
2024/03/02 09:55:29;;;;;;;22.95;12.52;;;;;;;11.58;75.68;99775.31;6243053;23;20086;-82
2024/03/02 09:57:56;;;;;;;22.75;14.35;;;;;;;11.46;75.82;99784.38;6218046;23;20585;-83
2024/03/02 10:00:26;;;;;;;19.40;13.00;;;;;;;11.46;75.96;99780.88;6222919;23;20027;-83
2024/03/02 10:02:54;;;;;;;19.33;11.93;;;;;;;11.21;76.16;99782.41;6248369;23;20030;-81
2024/03/02 10:05:30;;;;;;;22.52;13.38;;;;;;;11.18;76.46;99782.47;6223084;23;20476;-83
2024/03/02 10:08:03;;;;;;;21.90;12.95;;;;;;;11.44;75.55;99780.94;6221896;23;20026;-84
2024/03/02 10:10:41;;;;;;;19.73;12.32;;;;;;;11.30;75.56;99788.28;6218660;22;20075;-82
2024/03/02 10:13:17;;;;;;;19.30;12.70;;;;;;;11.37;75.39;99785.47;6244797;23;20065;-83
2024/03/02 10:15:46;;;;;;;23.35;12.95;;;;;;;11.46;76.08;99789.63;6248794;23;20016;-82
2024/03/02 10:18:16;;;;;;;22.50;14.07;;;;;;;11.67;75.16;99777.69;6220113;23;20020;-82
2024/03/02 10:20:48;;;;;;;20.00;12.85;;;;;;;11.69;74.48;99789.00;6222021;23;20517;-82
2024/03/02 10:23:18;;;;;;;21.45;13.50;;;;;;;11.83;74.07;99793.84;6221718;23;20024;-82
2024/03/02 10:25:47;;;;;;;19.50;13.45;;;;;;;11.90;73.83;99790.16;6244937;23;20016;-83
2024/03/02 10:28:15;;;;;;;16.30;12.13;;;;;;;11.92;73.60;99790.97;6218161;23;20480;-82
2024/03/02 10:30:42;;;;;;;20.08;12.85;;;;;;;12.06;72.80;99798.47;6248239;23;20016;-83
2024/03/02 10:33:09;;;;;;;18.08;13.63;;;;;;;12.14;72.20;99795.63;6220691;23;20294;-83
2024/03/02 10:35:39;;;;;;;20.55;13.70;;;;;;;12.14;72.12;99793.00;6223395;23;20086;-83
2024/03/02 10:38:06;;;;;;;18.08;12.70;;;;;;;12.16;73.08;99800.84;6248386;23;20023;-80
2024/03/02 10:40:33;;;;;;;22.83;13.00;;;;;;;12.35;72.38;99794.13;6248418;23;20773;-83
2024/03/02 10:43:03;;;;;;;18.15;12.10;;;;;;;12.24;71.91;99793.59;6221177;23;20095;-83
2024/03/02 10:45:30;;;;;;;19.52;12.00;;;;;;;12.35;71.26;99791.50;6219204;23;20024;-82
2024/03/02 10:47:57;;;;;;;22.35;13.63;;;;;;;12.56;71.09;99797.00;6194919;23;20048;-83
2024/03/02 10:50:29;;;;;;;18.67;12.27;;;;;;;12.46;70.39;99798.19;6246184;23;20019;-83
2024/03/02 10:53:05;;;;;;;17.58;13.35;;;;;;;12.51;69.92;99799.78;6218007;23;20059;-82
2024/03/02 10:55:32;;;;;;;18.55;12.25;;;;;;;12.54;70.66;99793.56;6223276;22;20032;-82
2024/03/02 10:58:04;;;;;;;21.52;12.63;;;;;;;12.68;70.33;99783.50;6246945;22;20020;-82
2024/03/02 11:00:36;;;;;;;17.48;11.98;;;;;;;12.85;69.42;99793.47;6244935;22;20023;-82
2024/03/02 11:03:08;;;;;;;18.70;12.23;;;;;;;12.59;69.00;99799.53;6221791;22;20110;-80
2024/03/02 11:05:40;;;;;;;20.33;12.77;;;;;;;12.90;68.94;99793.31;6222677;22;20070;-82
2024/03/02 11:08:15;;;;;;;20.05;11.10;;;;;;;13.40;66.96;99790.81;6222308;22;20098;-82
2024/03/02 11:10:50;;;;;;;15.02;11.18;;;;;;;13.56;65.62;99788.50;6222463;22;20027;-82
2024/03/02 11:13:25;;;;;;;18.60;11.23;;;;;;;13.94;65.23;99785.41;6247624;22;20422;-82
2024/03/02 11:15:57;;;;;;;17.70;10.95;;;;;;;14.26;63.67;99785.09;6223428;22;20019;-81
2024/03/02 11:18:26;;;;;;;16.27;11.32;;;;;;;13.78;63.64;99790.38;6221432;22;20027;-82
2024/03/02 11:20:54;;;;;;;16.67;10.38;;;;;;;13.65;64.24;99789.06;6197097;22;20024;-82
2024/03/02 11:23:35;;;;;;;31.42;11.20;;;;;;;13.57;64.90;99786.72;6220609;22;20023;-82
2024/03/02 11:26:24;;;;;;;16.33;11.15;;;;;;;13.35;64.97;99790.06;6195999;22;20111;-82